Decoded Metar for VTBU (RAYONG in THAILAND) (IATA:UTP) | Meteo·Mobile Aviation Weather
aviador You're here:

VTBU Decoded Metar

RAYONG in THAILAND
Report Time2019-10-19 21:30:00
UTC Time2019-10-19 21:50:15
Flight Rules vfr VFR
Wind050° at 02 kt
W.Decomp.*RWY 36: 1.3 kt HW 1.5 kt RCW
Visibility9999 m
Phenomena:N/A
Clouds:Few 020 Hf
Scattered 100 Hf
Expected CloudBase > 2,000 ft AGL from Temp-Dew spread
CeilingNone
Temp28°C (ISA +13)
Dew Point23°C (74% RH)
Heat Index31.2°C
QNH1011 hPa
Density Alt1,952 ft
Elevation16 ft
Report Wrong Elevation
Raw Report
VTBU 192130Z 05002KT 9999 FEW020 SCT100 28/23 Q1011 NOSIG=

Extra information for VTBU:More info

Metar Taf Metar & Taf Last 4 Metars F.Rules Stats Wind Profile Meteogram Temp Stats Airport Information Weather charts Add Link Nearby VenuesMetar ALERT Operation Metar Decoded Social comments